createdAt,value
2018-05-16T00:00:13.803Z,99104
2018-05-16T00:02:43.578Z,99109
2018-05-16T00:05:13.297Z,99115
2018-05-16T00:07:43.077Z,99113
2018-05-16T00:10:13.109Z,99091
2018-05-16T00:12:43.148Z,99087
2018-05-16T00:15:13.179Z,99076
2018-05-16T00:17:42.875Z,99076
2018-05-16T00:20:12.643Z,99062
2018-05-16T00:22:43.013Z,99053
2018-05-16T00:25:12.848Z,99067
2018-05-16T00:27:42.653Z,99057
2018-05-16T00:30:12.415Z,99059
2018-05-16T00:32:42.116Z,99055
2018-05-16T00:35:11.779Z,99049
2018-05-16T00:37:41.751Z,99048
2018-05-16T00:40:11.509Z,99054
2018-05-16T00:42:41.218Z,99056
2018-05-16T00:45:10.923Z,99054
2018-05-16T00:47:40.607Z,99063
2018-05-16T00:50:10.399Z,99066
2018-05-16T00:52:40.080Z,99060
2018-05-16T00:55:09.755Z,99050
2018-05-16T00:57:40.091Z,99047
2018-05-16T01:00:09.771Z,99049
2018-05-16T01:02:39.436Z,99063
2018-05-16T01:05:09.775Z,99071
2018-05-16T01:07:39.555Z,99061
2018-05-16T01:10:09.921Z,99054
2018-05-16T01:12:39.707Z,99052
2018-05-16T01:15:10.036Z,99053
2018-05-16T01:17:39.836Z,99048
2018-05-16T01:20:09.621Z,99043
2018-05-16T01:22:39.364Z,99050
2018-05-16T01:25:09.160Z,99055
2018-05-16T01:27:38.891Z,99052
2018-05-16T01:30:08.569Z,99051
2018-05-16T01:32:38.248Z,99051
2018-05-16T01:35:07.982Z,99051
2018-05-16T01:37:37.912Z,99051
2018-05-16T01:40:07.680Z,99056
2018-05-16T01:42:37.385Z,99057
2018-05-16T01:45:07.144Z,99042
2018-05-16T01:47:36.883Z,99048
2018-05-16T01:50:07.396Z,99055
2018-05-16T01:52:37.782Z,99062
2018-05-16T01:55:08.230Z,99067
2018-05-16T01:57:38.686Z,99052
2018-05-16T02:00:09.355Z,99053
2018-05-16T02:02:40.032Z,99058
2018-05-16T02:05:10.501Z,99051
2018-05-16T02:07:40.376Z,99057
2018-05-16T02:10:10.479Z,99050
2018-05-16T02:12:40.205Z,99049
2018-05-16T02:15:09.923Z,99050
2018-05-16T02:17:39.620Z,99053
2018-05-16T02:20:09.312Z,99050
2018-05-16T02:22:39.111Z,99048
2018-05-16T02:25:09.860Z,99048
2018-05-16T02:27:40.252Z,99041
2018-05-16T02:30:10.551Z,99050
2018-05-16T02:32:40.289Z,99043
2018-05-16T02:35:10.554Z,99041
2018-05-16T02:37:40.396Z,99051
2018-05-16T02:40:11.042Z,99052
2018-05-16T02:42:40.762Z,99053
2018-05-16T02:45:11.069Z,99067
2018-05-16T02:47:41.823Z,99067
2018-05-16T02:50:12.214Z,99068
2018-05-16T02:52:42.120Z,99075
2018-05-16T02:55:12.558Z,99077
2018-05-16T02:57:42.529Z,99083
2018-05-16T03:00:12.819Z,99087
2018-05-16T03:02:43.091Z,99094
2018-05-16T03:05:13.372Z,99085
2018-05-16T03:07:43.356Z,99104
2018-05-16T03:10:13.928Z,99117
2018-05-16T03:12:44.315Z,99104
2018-05-16T03:15:14.911Z,99106
2018-05-16T03:17:45.388Z,99107
2018-05-16T03:20:15.406Z,99120
2018-05-16T03:22:45.597Z,99124
2018-05-16T03:25:15.727Z,99116
2018-05-16T03:27:45.965Z,99120
2018-05-16T03:30:16.628Z,99122
2018-05-16T03:32:46.363Z,99119
2018-05-16T03:35:16.889Z,99121
2018-05-16T03:37:46.639Z,99126
2018-05-16T03:40:16.805Z,99120
2018-05-16T03:42:46.513Z,99124
2018-05-16T03:45:16.212Z,99127
2018-05-16T03:47:45.936Z,99125
2018-05-16T03:50:15.656Z,99130
2018-05-16T03:52:45.358Z,99122
2018-05-16T03:55:15.112Z,99119
2018-05-16T03:58:09.443Z,99130
2018-05-16T04:00:50.730Z,99134
2018-05-16T04:03:32.343Z,99136
2018-05-16T04:06:02.026Z,99139
2018-05-16T04:08:31.702Z,99146
2018-05-16T04:11:01.458Z,99143
2018-05-16T04:13:31.170Z,99150
2018-05-16T04:16:00.893Z,99150
2018-05-16T04:18:30.617Z,99152
2018-05-16T04:21:00.563Z,99156
2018-05-16T04:23:30.328Z,99165
2018-05-16T04:26:00.032Z,99160
2018-05-16T04:28:29.715Z,99165
2018-05-16T04:30:59.418Z,99176
2018-05-16T04:33:29.080Z,99173
2018-05-16T04:35:58.761Z,99174
2018-05-16T04:38:28.490Z,99186
2018-05-16T04:40:58.150Z,99181
2018-05-16T04:43:27.832Z,99188
2018-05-16T04:45:57.580Z,99191
2018-05-16T04:48:27.275Z,99184
2018-05-16T04:50:56.999Z,99186
2018-05-16T04:53:26.669Z,99188
2018-05-16T04:55:56.372Z,99185
2018-05-16T04:58:26.180Z,99185
2018-05-16T05:00:55.897Z,99187
2018-05-16T05:03:25.573Z,99190
2018-05-16T05:05:55.297Z,99202
2018-05-16T05:08:24.992Z,99208
2018-05-16T05:10:54.672Z,99217
2018-05-16T05:13:24.380Z,99227
2018-05-16T05:15:54.099Z,99226
2018-05-16T05:18:23.888Z,99238
2018-05-16T05:20:53.564Z,99233
2018-05-16T05:23:23.252Z,99233
2018-05-16T05:25:53.000Z,99232
2018-05-16T05:28:22.681Z,99234
2018-05-16T05:30:52.356Z,99237
2018-05-16T05:33:22.099Z,99237
2018-05-16T05:35:51.802Z,99242
2018-05-16T05:38:21.470Z,99241
2018-05-16T05:40:51.172Z,99239
2018-05-16T05:43:20.886Z,99239
2018-05-16T05:45:50.617Z,99247
2018-05-16T05:48:20.337Z,99240
2018-05-16T05:50:50.038Z,99245
2018-05-16T05:53:19.791Z,99251
2018-05-16T05:55:49.553Z,99253
2018-05-16T05:58:20.773Z,99257
2018-05-16T06:00:50.465Z,99257
2018-05-16T06:03:20.127Z,99256
2018-05-16T06:05:49.871Z,99262
2018-05-16T06:08:19.625Z,99259
2018-05-16T06:10:49.346Z,99261
2018-05-16T06:13:19.075Z,99260
2018-05-16T06:15:48.757Z,99258
2018-05-16T06:18:18.521Z,99265
2018-05-16T06:20:48.217Z,99265
2018-05-16T06:23:17.921Z,99267
2018-05-16T06:25:47.672Z,99266
2018-05-16T06:28:17.398Z,99269
2018-05-16T06:30:47.086Z,99271
2018-05-16T06:33:16.816Z,99264
2018-05-16T06:35:46.515Z,99266
2018-05-16T06:38:16.211Z,99265
2018-05-16T06:40:45.937Z,99264
2018-05-16T06:43:15.624Z,99262
2018-05-16T06:45:45.370Z,99261
2018-05-16T06:48:15.053Z,99256
2018-05-16T06:50:44.719Z,99258
2018-05-16T06:53:14.533Z,99271
2018-05-16T06:55:44.224Z,99266
2018-05-16T06:58:13.957Z,99256
2018-05-16T07:00:43.692Z,99258
2018-05-16T07:03:13.395Z,99262
2018-05-16T07:05:43.151Z,99267
2018-05-16T07:08:12.901Z,99270
2018-05-16T07:10:42.603Z,99271
2018-05-16T07:13:12.321Z,99273
2018-05-16T07:15:42.013Z,99278
2018-05-16T07:18:11.724Z,99281
2018-05-16T07:20:41.445Z,99278
2018-05-16T07:23:11.154Z,99279
2018-05-16T07:25:40.892Z,99286
2018-05-16T07:28:10.561Z,99287
2018-05-16T07:30:40.256Z,99291
2018-05-16T07:33:09.952Z,99288
2018-05-16T07:35:39.620Z,99284
2018-05-16T07:38:09.321Z,99285
2018-05-16T07:40:39.101Z,99295
2018-05-16T07:43:08.820Z,99285
2018-05-16T07:45:38.576Z,99283
2018-05-16T07:48:08.317Z,99285
2018-05-16T07:50:37.988Z,99292
2018-05-16T07:53:07.678Z,99292
2018-05-16T07:55:37.342Z,99297
2018-05-16T07:58:07.028Z,99296
2018-05-16T08:00:36.746Z,99294
2018-05-16T08:03:06.584Z,99297
2018-05-16T08:05:36.245Z,99303
2018-05-16T08:08:05.971Z,99300
2018-05-16T08:10:35.646Z,99297
2018-05-16T08:13:05.376Z,99298
2018-05-16T08:15:35.106Z,99303
2018-05-16T08:18:05.102Z,99301
2018-05-16T08:20:34.848Z,99302
2018-05-16T08:23:04.579Z,99302
2018-05-16T08:25:34.334Z,99297
2018-05-16T08:28:04.109Z,99295
2018-05-16T08:30:33.822Z,99300
2018-05-16T08:33:03.562Z,99298
2018-05-16T08:35:33.295Z,99298
2018-05-16T08:38:02.982Z,99306
2018-05-16T08:40:32.739Z,99305
2018-05-16T08:43:02.490Z,99300
2018-05-16T08:45:32.193Z,99294
2018-05-16T08:48:01.932Z,99282
2018-05-16T08:50:31.627Z,99280
2018-05-16T08:53:01.310Z,99283
2018-05-16T08:55:31.103Z,99290
2018-05-16T08:58:00.784Z,99280
2018-05-16T09:00:30.522Z,99277
2018-05-16T09:03:00.323Z,99278
2018-05-16T09:05:29.999Z,99277
2018-05-16T09:07:59.753Z,99279
2018-05-16T09:10:29.448Z,99276
2018-05-16T09:12:59.210Z,99280
2018-05-16T09:15:28.958Z,99275
2018-05-16T09:17:58.608Z,99277
2018-05-16T09:20:28.323Z,99287
2018-05-16T09:22:58.017Z,99293
2018-05-16T09:25:27.687Z,99290
2018-05-16T09:27:57.407Z,99284
2018-05-16T09:30:27.094Z,99280
2018-05-16T09:32:56.754Z,99285
2018-05-16T09:35:26.496Z,99283
2018-05-16T09:37:56.232Z,99288
2018-05-16T09:40:26.013Z,99285
2018-05-16T09:42:55.708Z,99272
2018-05-16T09:45:25.371Z,99266
2018-05-16T09:47:55.080Z,99264
2018-05-16T09:50:24.796Z,99263
2018-05-16T09:52:54.512Z,99270
2018-05-16T09:55:25.309Z,99262
2018-05-16T09:57:55.142Z,99259
2018-05-16T10:00:30.437Z,99256
2018-05-16T10:03:00.154Z,99246
2018-05-16T10:05:29.818Z,99247
2018-05-16T10:07:59.563Z,99252
2018-05-16T10:10:29.300Z,99253
2018-05-16T10:12:58.995Z,99250
2018-05-16T10:15:28.733Z,99237
2018-05-16T10:17:58.435Z,99226
2018-05-16T10:20:28.169Z,99232
2018-05-16T10:22:57.879Z,99227
2018-05-16T10:25:27.589Z,99217
2018-05-16T10:27:57.309Z,99221
2018-05-16T10:30:27.012Z,99222
2018-05-16T10:32:56.697Z,99232
2018-05-16T10:35:26.429Z,99237
2018-05-16T10:37:56.158Z,99222
2018-05-16T10:40:25.839Z,99227
2018-05-16T10:42:55.559Z,99221
2018-05-16T10:45:25.238Z,99216
2018-05-16T10:47:54.962Z,99212
2018-05-16T10:50:24.708Z,99204
2018-05-16T10:52:54.368Z,99201
2018-05-16T10:55:24.084Z,99205
2018-05-16T10:57:53.780Z,99204
2018-05-16T11:00:23.645Z,99205
2018-05-16T11:02:53.448Z,99212
2018-05-16T11:05:23.338Z,99208
2018-05-16T11:07:53.083Z,99206
2018-05-16T11:10:22.801Z,99210
2018-05-16T11:12:52.512Z,99207
2018-05-16T11:15:22.218Z,99208
2018-05-16T11:17:54.356Z,99202
2018-05-16T11:20:24.064Z,99194
2018-05-16T11:22:53.787Z,99188
2018-05-16T11:25:23.455Z,99194
2018-05-16T11:27:53.167Z,99197
2018-05-16T11:30:22.980Z,99193
2018-05-16T11:32:52.662Z,99197
2018-05-16T11:35:22.369Z,99187
2018-05-16T11:37:52.069Z,99192
2018-05-16T11:40:21.777Z,99200
2018-05-16T11:42:51.528Z,99198
2018-05-16T11:45:21.207Z,99189
2018-05-16T11:47:50.943Z,99188
2018-05-16T11:50:20.691Z,99184
2018-05-16T11:52:50.371Z,99189
2018-05-16T11:55:20.124Z,99190
2018-05-16T11:57:49.845Z,99190
2018-05-16T12:00:19.519Z,99201
2018-05-16T12:02:49.311Z,99197
2018-05-16T12:05:18.999Z,99196
2018-05-16T12:07:48.774Z,99183
2018-05-16T12:10:18.440Z,99180
2018-05-16T12:12:48.105Z,99170
2018-05-16T12:15:17.837Z,99169
2018-05-16T12:17:47.522Z,99171
2018-05-16T12:20:17.203Z,99172
2018-05-16T12:22:46.942Z,99172
2018-05-16T12:25:16.681Z,99164
2018-05-16T12:27:46.390Z,99164
2018-05-16T12:30:16.102Z,99160
2018-05-16T12:32:45.799Z,99158
2018-05-16T12:35:15.475Z,99161
2018-05-16T12:37:45.219Z,99157
2018-05-16T12:40:14.956Z,99153
2018-05-16T12:42:56.411Z,99153
2018-05-16T12:45:26.125Z,99157
2018-05-16T12:47:55.846Z,99151
2018-05-16T12:50:25.520Z,99154
2018-05-16T12:52:55.224Z,99152
2018-05-16T12:55:24.948Z,99147
2018-05-16T12:57:54.611Z,99146
2018-05-16T13:00:24.298Z,99146
2018-05-16T13:02:54.047Z,99150
2018-05-16T13:05:23.759Z,99146
2018-05-16T13:07:53.470Z,99142
2018-05-16T13:10:23.175Z,99143
2018-05-16T13:12:52.850Z,99133
2018-05-16T13:15:22.608Z,99133
2018-05-16T13:17:52.285Z,99132
2018-05-16T13:20:21.954Z,99133
2018-05-16T13:22:51.676Z,99133
2018-05-16T13:25:21.379Z,99126
2018-05-16T13:27:51.086Z,99119
2018-05-16T13:30:20.816Z,99116
2018-05-16T13:32:50.513Z,99113
2018-05-16T13:35:20.221Z,99111
2018-05-16T13:37:49.957Z,99113
2018-05-16T13:40:19.641Z,99108
2018-05-16T13:42:49.359Z,99118
2018-05-16T13:45:19.072Z,99110
2018-05-16T13:47:48.778Z,99115
2018-05-16T13:50:18.545Z,99116
2018-05-16T13:52:48.233Z,99105
2018-05-16T13:55:17.908Z,99107
2018-05-16T13:57:47.677Z,99112
2018-05-16T14:00:17.432Z,99110
2018-05-16T14:02:47.132Z,99108
2018-05-16T14:05:16.836Z,99108
2018-05-16T14:07:46.513Z,99114
2018-05-16T14:10:16.193Z,99108
2018-05-16T14:12:45.914Z,99106
2018-05-16T14:15:15.620Z,99113
2018-05-16T14:17:45.301Z,99111
2018-05-16T14:20:14.992Z,99107
2018-05-16T14:22:44.734Z,99101
2018-05-16T14:25:14.449Z,99097
2018-05-16T14:27:44.131Z,99100
2018-05-16T14:30:13.848Z,99101
2018-05-16T14:32:43.506Z,99092
2018-05-16T14:35:13.200Z,99094
2018-05-16T14:37:42.904Z,99091
2018-05-16T14:40:12.596Z,99087
2018-05-16T14:42:42.477Z,99083
2018-05-16T14:45:12.123Z,99087
2018-05-16T14:47:45.022Z,99093
2018-05-16T14:50:14.740Z,99090
2018-05-16T14:52:44.472Z,99082
2018-05-16T14:55:14.168Z,99086
2018-05-16T14:57:43.888Z,99085
2018-05-16T15:00:13.656Z,99082
2018-05-16T15:02:43.403Z,99070
2018-05-16T15:05:13.130Z,99074
2018-05-16T15:07:42.829Z,99073
2018-05-16T15:10:12.515Z,99079
2018-05-16T15:12:42.252Z,99069
2018-05-16T15:15:11.974Z,99072
2018-05-16T15:17:41.727Z,99075
2018-05-16T15:20:11.501Z,99079
2018-05-16T15:22:41.202Z,99081
2018-05-16T15:25:11.095Z,99079
2018-05-16T15:27:40.853Z,99076
2018-05-16T15:30:10.663Z,99081
2018-05-16T15:32:40.459Z,99078
2018-05-16T15:35:10.226Z,99077
2018-05-16T15:37:39.981Z,99073
2018-05-16T15:40:09.714Z,99077
2018-05-16T15:42:39.411Z,99073
2018-05-16T15:45:09.267Z,99071
2018-05-16T15:47:38.976Z,99076
2018-05-16T15:50:08.704Z,99084
2018-05-16T15:52:38.541Z,99094
2018-05-16T15:55:08.266Z,99090
2018-05-16T15:57:38.027Z,99092
2018-05-16T16:00:07.823Z,99107
2018-05-16T16:02:37.518Z,99099
2018-05-16T16:05:07.373Z,99105
2018-05-16T16:07:37.109Z,99098
2018-05-16T16:10:06.878Z,99098
2018-05-16T16:12:36.596Z,99104
2018-05-16T16:15:06.345Z,99101
2018-05-16T16:17:36.113Z,99095
2018-05-16T16:20:05.846Z,99094
2018-05-16T16:22:35.584Z,99094
2018-05-16T16:25:05.324Z,99097
2018-05-16T16:27:35.038Z,99096
2018-05-16T16:30:04.827Z,99099
2018-05-16T16:32:34.534Z,99097
2018-05-16T16:35:04.294Z,99101
2018-05-16T16:37:34.065Z,99101
2018-05-16T16:40:03.842Z,99101
2018-05-16T16:42:33.571Z,99101
2018-05-16T16:45:03.338Z,99103
2018-05-16T16:47:33.015Z,99104
2018-05-16T16:50:02.771Z,99106
2018-05-16T16:52:32.444Z,99111
2018-05-16T16:55:02.141Z,99115
2018-05-16T16:57:31.911Z,99109
2018-05-16T17:00:01.637Z,99108
2018-05-16T17:02:31.371Z,99108
2018-05-16T17:05:01.149Z,99109
2018-05-16T17:07:30.901Z,99120
2018-05-16T17:10:00.655Z,99128
2018-05-16T17:12:30.407Z,99124
2018-05-16T17:15:00.149Z,99137
2018-05-16T17:17:29.889Z,99142
2018-05-16T17:19:59.583Z,99149
2018-05-16T17:22:29.270Z,99156
2018-05-16T17:24:59.012Z,99159
2018-05-16T17:27:28.695Z,99164
2018-05-16T17:29:58.414Z,99167
2018-05-16T17:32:28.143Z,99161
2018-05-16T17:34:57.868Z,99165
2018-05-16T17:37:27.620Z,99167
2018-05-16T17:39:57.352Z,99173
2018-05-16T17:42:27.064Z,99167
2018-05-16T17:44:56.897Z,99164
2018-05-16T17:47:28.026Z,99165
2018-05-16T17:49:58.405Z,99165
2018-05-16T17:52:28.784Z,99173
2018-05-16T17:55:00.044Z,99177
2018-05-16T17:57:30.370Z,99177
2018-05-16T18:00:00.712Z,99184
2018-05-16T18:02:31.136Z,99183
2018-05-16T18:05:00.873Z,99184
2018-05-16T18:07:30.656Z,99187
2018-05-16T18:10:00.421Z,99191
2018-05-16T18:12:30.172Z,99192
2018-05-16T18:15:18.646Z,99195
2018-05-16T18:17:48.434Z,99197
2018-05-16T18:20:18.143Z,99203
2018-05-16T18:22:47.926Z,99206
2018-05-16T18:25:17.606Z,99210
2018-05-16T18:27:47.385Z,99223
2018-05-16T18:30:17.874Z,99230
2018-05-16T18:32:48.045Z,99231
2018-05-16T18:35:17.765Z,99234
2018-05-16T18:37:47.568Z,99234
2018-05-16T18:40:17.267Z,99236
2018-05-16T18:42:47.007Z,99238
2018-05-16T18:45:16.745Z,99234
2018-05-16T18:47:46.481Z,99234
2018-05-16T18:50:16.264Z,99236
2018-05-16T18:52:46.029Z,99240
2018-05-16T18:55:15.753Z,99241
2018-05-16T18:57:45.504Z,99248
2018-05-16T19:00:15.272Z,99248
2018-05-16T19:02:44.986Z,99255
2018-05-16T19:05:14.782Z,99262
2018-05-16T19:07:44.510Z,99262
2018-05-16T19:10:14.310Z,99272
2018-05-16T19:12:44.062Z,99280
2018-05-16T19:15:13.781Z,99283
2018-05-16T19:17:43.515Z,99292
2018-05-16T19:20:13.191Z,99293
2018-05-16T19:22:42.916Z,99302
2018-05-16T19:25:12.669Z,99298
2018-05-16T19:27:42.421Z,99297
2018-05-16T19:30:12.188Z,99296
2018-05-16T19:32:41.911Z,99303
2018-05-16T19:35:11.941Z,99317
2018-05-16T19:37:42.014Z,99313
2018-05-16T19:40:12.043Z,99320
2018-05-16T19:42:42.614Z,99321
2018-05-16T19:45:13.004Z,99317
2018-05-16T19:47:43.775Z,99322
2018-05-16T19:50:13.947Z,99323
2018-05-16T19:52:44.259Z,99333
2018-05-16T19:55:14.083Z,99336
2018-05-16T19:57:44.606Z,99336
2018-05-16T20:00:14.959Z,99340
2018-05-16T20:02:45.284Z,99341
2018-05-16T20:05:15.949Z,99340
2018-05-16T20:07:46.679Z,99336
2018-05-16T20:10:17.013Z,99330
2018-05-16T20:12:46.937Z,99326
2018-05-16T20:15:16.741Z,99325
2018-05-16T20:17:46.940Z,99327
2018-05-16T20:20:17.457Z,99325
2018-05-16T20:22:47.996Z,99318
2018-05-16T20:25:18.559Z,99321
2018-05-16T20:27:49.222Z,99323
2018-05-16T20:30:20.139Z,99316
2018-05-16T20:32:50.729Z,99312
2018-05-16T20:35:21.231Z,99317
2018-05-16T20:37:52.161Z,99311
2018-05-16T20:40:22.536Z,99314
2018-05-16T20:42:53.658Z,99316
2018-05-16T20:45:24.389Z,99321
2018-05-16T20:47:55.138Z,99325
2018-05-16T20:50:24.890Z,99329
2018-05-16T20:52:54.906Z,99333
2018-05-16T20:55:24.705Z,99331
2018-05-16T20:57:55.141Z,99334
2018-05-16T21:00:25.593Z,99331
2018-05-16T21:02:55.988Z,99327
2018-05-16T21:05:26.282Z,99329
2018-05-16T21:07:56.755Z,99324
2018-05-16T21:10:27.133Z,99315
2018-05-16T21:12:57.883Z,99314
2018-05-16T21:15:27.643Z,99314
2018-05-16T21:17:57.740Z,99308
2018-05-16T21:20:28.122Z,99308
2018-05-16T21:22:58.536Z,99308
2018-05-16T21:25:28.944Z,99309
2018-05-16T21:30:35.957Z,99329
2018-05-16T21:33:05.989Z,99335
2018-05-16T21:35:35.777Z,99334
2018-05-16T21:38:06.069Z,99332
2018-05-16T21:40:37.045Z,99327
2018-05-16T21:43:06.807Z,99325
2018-05-16T21:45:36.889Z,99323
2018-05-16T21:48:07.209Z,99324
2018-05-16T21:50:37.461Z,99330
2018-05-16T21:53:07.700Z,99333
2018-05-16T21:55:37.975Z,99342
2018-05-16T21:58:08.591Z,99343
2018-05-16T22:00:38.473Z,99344
2018-05-16T22:03:08.487Z,99347
2018-05-16T22:05:38.807Z,99350
2018-05-16T22:08:08.828Z,99346
2018-05-16T22:10:38.899Z,99349
2018-05-16T22:13:09.168Z,99341
2018-05-16T22:15:39.337Z,99340
2018-05-16T22:18:09.362Z,99344
2018-05-16T22:20:39.932Z,99346
2018-05-16T22:23:10.117Z,99343
2018-05-16T22:25:39.942Z,99337
2018-05-16T22:28:10.185Z,99336
2018-05-16T22:30:46.236Z,99328
2018-05-16T22:33:22.116Z,99329
2018-05-16T22:35:58.028Z,99328
2018-05-16T22:38:33.929Z,99335
2018-05-16T22:41:09.412Z,99343
2018-05-16T22:43:57.444Z,99332
2018-05-16T22:46:27.860Z,99327
2018-05-16T22:48:57.581Z,99330
2018-05-16T22:51:27.379Z,99333
2018-05-16T22:53:57.235Z,99332
2018-05-16T22:56:27.499Z,99335
2018-05-16T22:58:58.077Z,99327
2018-05-16T23:01:28.101Z,99320
2018-05-16T23:03:58.127Z,99322
2018-05-16T23:06:28.263Z,99334
2018-05-16T23:08:58.653Z,99333
2018-05-16T23:11:28.925Z,99344
2018-05-16T23:13:58.612Z,99332
2018-05-16T23:16:28.514Z,99333
2018-05-16T23:18:58.888Z,99334
2018-05-16T23:21:29.152Z,99339
2018-05-16T23:23:59.427Z,99343
2018-05-16T23:26:29.960Z,99343
2018-05-16T23:29:00.152Z,99338
2018-05-16T23:31:30.640Z,99336
2018-05-16T23:34:00.738Z,99332
2018-05-16T23:36:30.504Z,99335
2018-05-16T23:39:00.596Z,99331
2018-05-16T23:41:30.782Z,99334
2018-05-16T23:44:00.999Z,99331
2018-05-16T23:46:31.369Z,99330
2018-05-16T23:49:01.627Z,99330
2018-05-16T23:51:31.376Z,99329
2018-05-16T23:54:01.876Z,99321
2018-05-16T23:56:32.058Z,99319
2018-05-16T23:59:01.740Z,99302
